createdAt,value
2023-08-12T00:00:15.034Z,101464.38
2023-08-12T00:02:16.853Z,101462.66
2023-08-12T00:04:18.547Z,101465.59
2023-08-12T00:06:20.192Z,101463.88
2023-08-12T00:08:21.789Z,101462.00
2023-08-12T00:10:23.577Z,101461.00
2023-08-12T00:12:25.261Z,101456.53
2023-08-12T00:14:26.830Z,101452.94
2023-08-12T00:16:28.840Z,101445.78
2023-08-12T00:18:30.523Z,101450.38
2023-08-12T00:20:32.178Z,101446.81
2023-08-12T00:22:33.902Z,101442.34
2023-08-12T00:24:35.544Z,101437.94
2023-08-12T00:26:37.241Z,101435.22
2023-08-12T00:28:38.969Z,101436.06
2023-08-12T00:30:40.552Z,101428.88
2023-08-12T00:32:42.194Z,101422.56
2023-08-12T00:34:43.855Z,101425.28
2023-08-12T00:36:45.545Z,101420.03
2023-08-12T00:38:47.199Z,101420.22
2023-08-12T00:40:49.953Z,101420.03
2023-08-12T00:42:51.536Z,101409.28
2023-08-12T00:44:53.128Z,101411.16
2023-08-12T00:46:56.129Z,101417.47
2023-08-12T00:48:58.187Z,101422.13
2023-08-12T00:51:00.351Z,101418.50
2023-08-12T00:53:02.064Z,101421.25
2023-08-12T00:55:04.216Z,101412.16
2023-08-12T00:57:07.100Z,101422.31
2023-08-12T00:59:10.225Z,101425.88
2023-08-12T01:01:13.184Z,101414.09
2023-08-12T01:03:14.997Z,101419.78
2023-08-12T01:05:17.192Z,101412.59
2023-08-12T01:07:18.974Z,101409.88
2023-08-12T01:09:20.703Z,101411.75
2023-08-12T01:11:29.005Z,101421.00
2023-08-12T01:14:05.654Z,101421.84
2023-08-12T01:16:10.283Z,101412.78
2023-08-12T01:18:15.925Z,101408.34
2023-08-12T01:20:18.010Z,101408.34
2023-08-12T01:22:22.654Z,101402.03
2023-08-12T01:24:25.958Z,101398.47
2023-08-12T01:26:27.593Z,101391.94
2023-08-12T01:28:29.257Z,101391.09
2023-08-12T01:30:33.286Z,101400.34
2023-08-12T01:32:41.146Z,101392.13
2023-08-12T01:35:01.540Z,101399.50
2023-08-12T01:37:06.365Z,101401.41
2023-08-12T01:39:11.061Z,101407.06
2023-08-12T01:41:14.490Z,101394.44
2023-08-12T01:43:16.544Z,101399.91
2023-08-12T01:45:19.527Z,101395.25
2023-08-12T01:47:21.120Z,101396.31
2023-08-12T01:49:25.416Z,101400.94
2023-08-12T01:51:27.570Z,101384.72
2023-08-12T01:53:29.492Z,101381.34
2023-08-12T01:55:31.088Z,101390.19
2023-08-12T01:57:32.861Z,101382.16
2023-08-12T01:59:35.392Z,101377.56
2023-08-12T02:01:37.190Z,101376.50
2023-08-12T02:03:40.130Z,101373.31
2023-08-12T02:05:42.439Z,101361.31
2023-08-12T02:07:44.365Z,101365.13
2023-08-12T02:09:46.130Z,101367.84
2023-08-12T02:11:47.725Z,101369.53
2023-08-12T02:13:49.380Z,101367.84
2023-08-12T02:15:51.011Z,101371.41
2023-08-12T02:17:52.641Z,101372.44
2023-08-12T02:19:54.468Z,101372.44
2023-08-12T02:21:56.229Z,101379.00
2023-08-12T02:23:58.237Z,101379.81
2023-08-12T02:25:59.952Z,101381.72
2023-08-12T02:28:01.609Z,101384.47
2023-08-12T02:30:04.094Z,101380.84
2023-08-12T02:32:05.904Z,101379.19
2023-08-12T02:34:07.866Z,101373.72
2023-08-12T02:36:09.745Z,101367.56
2023-08-12T02:38:11.346Z,101372.00
2023-08-12T02:40:13.268Z,101378.31
2023-08-12T02:42:15.035Z,101368.63
2023-08-12T02:44:16.697Z,101371.19
2023-08-12T02:46:19.347Z,101367.56
2023-08-12T02:48:20.955Z,101371.19
2023-08-12T02:50:22.528Z,101368.63
2023-08-12T02:52:24.234Z,101376.84
2023-08-12T02:54:25.989Z,101373.22
2023-08-12T02:56:27.598Z,101375.97
2023-08-12T02:58:29.185Z,101374.31
2023-08-12T03:00:31.104Z,101370.91
2023-08-12T03:02:33.240Z,101362.50
2023-08-12T03:04:35.243Z,101359.75
2023-08-12T03:06:36.814Z,101361.66
2023-08-12T03:08:38.627Z,101352.63
2023-08-12T03:10:40.223Z,101356.38
2023-08-12T03:12:41.961Z,101350.91
2023-08-12T03:14:43.554Z,101357.22
2023-08-12T03:16:45.407Z,101352.81
2023-08-12T03:18:47.019Z,101345.63
2023-08-12T03:20:48.825Z,101353.66
2023-08-12T03:22:50.516Z,101352.13
2023-08-12T03:24:52.347Z,101355.75
2023-08-12T03:26:54.016Z,101350.28
2023-08-12T03:28:55.626Z,101340.16
2023-08-12T03:30:57.262Z,101349.41
2023-08-12T03:32:59.063Z,101353.19
2023-08-12T03:35:00.890Z,101349.41
2023-08-12T03:37:02.824Z,101344.13
2023-08-12T03:39:04.494Z,101341.41
2023-08-12T03:41:07.151Z,101344.13
2023-08-12T03:43:09.319Z,101341.59
2023-08-12T03:45:11.396Z,101338.03
2023-08-12T03:47:13.490Z,101340.75
2023-08-12T03:49:15.418Z,101328.97
2023-08-12T03:51:17.049Z,101335.47
2023-08-12T03:53:18.857Z,101339.91
2023-08-12T03:55:20.464Z,101327.28
2023-08-12T03:57:22.136Z,101331.91
2023-08-12T03:59:23.843Z,101334.66
2023-08-12T04:01:25.606Z,101331.03
2023-08-12T04:03:27.604Z,101329.19
2023-08-12T04:05:29.306Z,101325.56
2023-08-12T04:07:32.116Z,101330.22
2023-08-12T04:09:33.700Z,101326.63
2023-08-12T04:11:35.418Z,101319.25
2023-08-12T04:13:36.989Z,101318.59
2023-08-12T04:15:38.603Z,101315.84
2023-08-12T04:17:42.497Z,101313.13
2023-08-12T04:19:44.883Z,101309.34
2023-08-12T04:21:47.835Z,101304.91
2023-08-12T04:23:49.462Z,101304.09
2023-08-12T04:25:52.164Z,101304.91
2023-08-12T04:27:54.150Z,101307.03
2023-08-12T04:29:56.063Z,101308.72
2023-08-12T04:31:57.806Z,101307.84
2023-08-12T04:33:59.389Z,101302.56
2023-08-12T04:36:00.998Z,101290.59
2023-08-12T04:38:03.106Z,101304.28
2023-08-12T04:40:06.160Z,101299.84
2023-08-12T04:42:07.918Z,101295.84
2023-08-12T04:44:09.523Z,101303.66
2023-08-12T04:46:11.120Z,101307.22
2023-08-12T04:48:12.716Z,101300.91
2023-08-12T04:50:14.333Z,101296.47
2023-08-12T04:52:16.036Z,101306.56
2023-08-12T04:54:17.681Z,101307.41
2023-08-12T04:56:19.411Z,101320.25
2023-08-12T04:58:21.028Z,101308.25
2023-08-12T05:00:23.280Z,101308.44
2023-08-12T05:02:25.212Z,101313.91
2023-08-12T05:04:27.203Z,101317.72
2023-08-12T05:06:29.037Z,101312.25
2023-08-12T05:08:30.636Z,101314.97
2023-08-12T05:10:32.429Z,101307.81
2023-08-12T05:12:34.066Z,101314.09
2023-08-12T05:14:35.632Z,101314.09
2023-08-12T05:16:37.381Z,101312.44
2023-08-12T05:18:39.044Z,101322.31
2023-08-12T05:20:44.706Z,101314.31
2023-08-12T05:22:48.678Z,101324.41
2023-08-12T05:24:50.275Z,101326.28
2023-08-12T05:26:52.001Z,101321.66
2023-08-12T05:28:53.833Z,101322.69
2023-08-12T05:30:56.600Z,101330.06
2023-08-12T05:32:58.274Z,101323.75
2023-08-12T05:35:00.190Z,101321.88
2023-08-12T05:37:01.818Z,101323.75
2023-08-12T05:39:04.472Z,101324.59
2023-08-12T05:41:08.359Z,101319.13
2023-08-12T05:43:10.009Z,101306.47
2023-08-12T05:45:12.066Z,101315.56
2023-08-12T05:47:13.733Z,101305.47
2023-08-12T05:49:15.499Z,101313.84
2023-08-12T05:51:17.190Z,101320.34
2023-08-12T05:53:18.785Z,101333.81
2023-08-12T05:55:20.429Z,101333.19
2023-08-12T05:57:21.976Z,101332.16
2023-08-12T05:59:23.563Z,101332.16
2023-08-12T06:01:25.736Z,101323.94
2023-08-12T06:03:27.488Z,101332.34
2023-08-12T06:05:29.100Z,101334.22
2023-08-12T06:07:30.802Z,101331.47
2023-08-12T06:09:32.377Z,101331.47
2023-08-12T06:11:34.074Z,101326.00
2023-08-12T06:13:35.781Z,101329.63
2023-08-12T06:15:37.486Z,101331.69
2023-08-12T06:17:39.114Z,101330.84
2023-08-12T06:19:41.352Z,101328.75
2023-08-12T06:21:43.015Z,101327.06
2023-08-12T06:23:44.619Z,101323.47
2023-08-12T06:25:46.236Z,101318.00
2023-08-12T06:27:48.303Z,101317.16
2023-08-12T06:29:49.902Z,101325.38
2023-08-12T06:31:51.521Z,101322.63
2023-08-12T06:33:53.193Z,101326.22
2023-08-12T06:35:54.918Z,101321.81
2023-08-12T06:37:56.508Z,101320.94
2023-08-12T06:39:58.061Z,101329.13
2023-08-12T06:42:00.167Z,101320.94
2023-08-12T06:44:02.168Z,101324.72
2023-08-12T06:46:03.907Z,101321.13
2023-08-12T06:48:05.990Z,101318.41
2023-08-12T06:50:08.878Z,101330.19
2023-08-12T06:52:10.801Z,101330.19
2023-08-12T06:54:12.946Z,101324.72
2023-08-12T06:56:14.501Z,101328.50
2023-08-12T06:58:16.193Z,101327.47
2023-08-12T07:00:17.990Z,101324.72
2023-08-12T07:02:19.582Z,101333.97
2023-08-12T07:04:21.162Z,101336.69
2023-08-12T07:06:23.681Z,101342.16
2023-08-12T07:08:25.521Z,101343.00
2023-08-12T07:10:29.643Z,101348.66
2023-08-12T07:12:31.533Z,101348.66
2023-08-12T07:14:33.184Z,101350.56
2023-08-12T07:16:34.822Z,101349.25
2023-08-12T07:18:36.419Z,101357.88
2023-08-12T07:20:39.022Z,101361.69
2023-08-12T07:22:40.674Z,101367.16
2023-08-12T07:24:42.298Z,101372.63
2023-08-12T07:26:43.959Z,101373.66
2023-08-12T07:28:45.639Z,101381.84
2023-08-12T07:30:48.798Z,101380.81
2023-08-12T07:32:50.626Z,101391.75
2023-08-12T07:34:52.413Z,101399.97
2023-08-12T07:36:53.980Z,101397.41
2023-08-12T07:38:55.722Z,101394.69
2023-08-12T07:40:57.413Z,101398.25
2023-08-12T07:42:59.016Z,101400.16
2023-08-12T07:45:00.671Z,101395.72
2023-08-12T07:47:02.287Z,101405.63
2023-08-12T07:49:04.123Z,101411.09
2023-08-12T07:51:05.795Z,101403.91
2023-08-12T07:53:07.447Z,101403.03
2023-08-12T07:55:09.332Z,101403.91
2023-08-12T07:57:10.883Z,101402.19
2023-08-12T07:59:12.468Z,101403.03
2023-08-12T08:01:14.942Z,101408.50
2023-08-12T08:03:16.574Z,101407.63
2023-08-12T08:05:18.219Z,101409.53
2023-08-12T08:07:19.802Z,101418.56
2023-08-12T08:09:21.365Z,101421.16
2023-08-12T08:11:25.219Z,101412.13
2023-08-12T08:13:27.341Z,101413.97
2023-08-12T08:15:29.160Z,101407.47
2023-08-12T08:17:30.954Z,101416.56
2023-08-12T08:19:32.806Z,101409.19
2023-08-12T08:21:34.580Z,101399.28
2023-08-12T08:23:36.197Z,101410.03
2023-08-12T08:25:38.125Z,101413.63
2023-08-12T08:27:41.590Z,101406.06
2023-08-12T08:29:45.286Z,101404.56
2023-08-12T08:31:46.829Z,101408.63
2023-08-12T08:33:48.403Z,101400.59
2023-08-12T08:35:50.116Z,101407.78
2023-08-12T08:37:51.743Z,101410.50
2023-08-12T08:39:53.305Z,101414.94
2023-08-12T08:41:56.291Z,101415.97
2023-08-12T08:44:03.763Z,101416.63
2023-08-12T08:46:07.173Z,101419.16
2023-08-12T08:48:10.219Z,101421.91
2023-08-12T08:50:12.106Z,101418.31
2023-08-12T08:52:14.305Z,101421.69
2023-08-12T08:54:16.407Z,101420.22
2023-08-12T08:56:18.694Z,101425.94
2023-08-12T08:58:21.590Z,101418.78
2023-08-12T09:00:25.625Z,101417.94
2023-08-12T09:02:27.929Z,101427.84
2023-08-12T09:04:30.668Z,101425.94
2023-08-12T09:06:34.425Z,101415.84
2023-08-12T09:08:37.552Z,101421.31
2023-08-12T09:10:43.397Z,101424.06
2023-08-12T09:12:47.785Z,101426.78
2023-08-12T09:14:49.843Z,101426.59
2023-08-12T09:16:51.442Z,101423.84
2023-08-12T09:18:59.574Z,101424.06
2023-08-12T09:21:01.929Z,101423.84
2023-08-12T09:23:04.062Z,101419.25
2023-08-12T09:25:06.302Z,101426.41
2023-08-12T09:27:07.955Z,101431.88
2023-08-12T09:29:09.728Z,101423.47
2023-08-12T09:31:31.731Z,101421.59
2023-08-12T09:33:33.505Z,101424.34
2023-08-12T09:35:39.727Z,101426.00
2023-08-12T09:37:42.664Z,101423.47
2023-08-12T09:39:44.631Z,101430.47
2023-08-12T09:41:46.300Z,101428.56
2023-08-12T09:43:47.961Z,101425.81
2023-08-12T09:45:49.613Z,101440.38
2023-08-12T09:47:51.722Z,101441.00
2023-08-12T09:49:53.445Z,101442.91
2023-08-12T09:51:55.207Z,101442.03
2023-08-12T09:53:56.938Z,101442.91
2023-08-12T09:56:08.700Z,101446.47
2023-08-12T09:58:12.701Z,101446.47
2023-08-12T10:00:18.057Z,101450.25
2023-08-12T10:02:21.347Z,101453.84
2023-08-12T10:04:27.941Z,101451.94
2023-08-12T10:06:30.001Z,101454.03
2023-08-12T10:08:33.563Z,101453.84
2023-08-12T10:10:37.040Z,101452.97
2023-08-12T10:12:38.924Z,101442.91
2023-08-12T10:14:40.891Z,101431.09
2023-08-12T10:16:47.218Z,101439.09
2023-08-12T10:18:49.042Z,101443.75
2023-08-12T10:20:52.441Z,101436.38
2023-08-12T10:22:54.718Z,101432.63
2023-08-12T10:25:00.417Z,101437.88
2023-08-12T10:27:02.347Z,101447.13
2023-08-12T10:29:04.148Z,101443.16
2023-08-12T10:31:07.207Z,101444.03
2023-08-12T10:33:10.938Z,101438.56
2023-08-12T10:35:13.620Z,101433.28
2023-08-12T10:37:15.742Z,101436.66
2023-08-12T10:39:17.587Z,101447.59
2023-08-12T10:41:24.478Z,101441.09
2023-08-12T10:43:27.506Z,101445.72
2023-08-12T10:45:48.091Z,101437.88
2023-08-12T10:47:50.601Z,101442.97
2023-08-12T10:49:54.330Z,101441.31
2023-08-12T10:51:56.018Z,101442.97
2023-08-12T10:54:31.634Z,101443.84
2023-08-12T10:57:02.383Z,101434.78
2023-08-12T10:59:04.096Z,101437.31
2023-08-12T11:01:14.263Z,101432.72
2023-08-12T11:03:15.992Z,101425.53
2023-08-12T11:05:20.110Z,101427.03
2023-08-12T11:07:30.236Z,101424.50
2023-08-12T11:09:31.909Z,101418.84
2023-08-12T11:11:35.185Z,101416.94
2023-08-12T11:13:48.568Z,101417.59
2023-08-12T11:15:51.173Z,101415.72
2023-08-12T11:17:53.002Z,101411.09
2023-08-12T11:19:56.086Z,101410.25
2023-08-12T11:21:58.772Z,101402.88
2023-08-12T11:24:00.852Z,101409.00
2023-08-12T11:26:03.890Z,101406.06
2023-08-12T11:28:06.967Z,101403.53
2023-08-12T11:30:11.543Z,101404.38
2023-08-12T11:32:13.522Z,101403.53
2023-08-12T11:34:16.705Z,101406.94
2023-08-12T11:36:18.288Z,101396.81
2023-08-12T11:38:19.959Z,101392.19
2023-08-12T11:40:21.601Z,101390.31
2023-08-12T11:42:23.208Z,101385.88
2023-08-12T11:44:24.936Z,101383.78
2023-08-12T11:46:26.735Z,101379.38
2023-08-12T11:48:28.857Z,101386.53
2023-08-12T11:50:30.693Z,101386.31
2023-08-12T11:52:33.376Z,101382.56
2023-08-12T11:54:35.487Z,101380.03
2023-08-12T11:56:38.005Z,101370.78
2023-08-12T11:58:51.179Z,101369.53
2023-08-12T12:00:55.061Z,101378.78
2023-08-12T12:02:57.391Z,101375.00
2023-08-12T12:04:59.130Z,101380.31
2023-08-12T12:07:01.300Z,101373.78
2023-08-12T12:09:06.579Z,101383.69
2023-08-12T12:11:08.343Z,101374.44
2023-08-12T12:13:12.279Z,101378.00
2023-08-12T12:15:16.366Z,101375.91
2023-08-12T12:17:17.977Z,101379.50
2023-08-12T12:19:21.259Z,101371.13
2023-08-12T12:21:23.780Z,101375.31
2023-08-12T12:23:30.037Z,101381.66
2023-08-12T12:25:31.778Z,101379.75
2023-08-12T12:27:34.209Z,101379.75
2023-08-12T12:29:36.015Z,101377.03
2023-08-12T12:31:37.643Z,101388.16
2023-08-12T12:33:39.320Z,101384.59
2023-08-12T12:35:51.435Z,101382.91
2023-08-12T12:37:57.331Z,101382.06
2023-08-12T12:39:58.917Z,101376.59
2023-08-12T12:42:00.779Z,101366.66
2023-08-12T12:44:02.875Z,101366.66
2023-08-12T12:46:05.634Z,101382.25
2023-08-12T12:48:07.565Z,101376.78
2023-08-12T12:50:09.300Z,101376.59
2023-08-12T12:52:11.239Z,101372.78
2023-08-12T12:54:13.133Z,101369.22
2023-08-12T12:56:15.183Z,101365.25
2023-08-12T12:58:17.516Z,101368.81
2023-08-12T13:00:19.198Z,101368.81
2023-08-12T13:02:20.803Z,101370.53
2023-08-12T13:04:22.496Z,101369.66
2023-08-12T13:06:24.131Z,101366.09
2023-08-12T13:08:26.211Z,101365.06
2023-08-12T13:10:27.820Z,101367.41
2023-08-12T13:12:29.485Z,101368.44
2023-08-12T13:14:31.491Z,101371.16
2023-08-12T13:16:33.116Z,101361.25
2023-08-12T13:18:35.155Z,101368.63
2023-08-12T13:20:37.426Z,101366.72
2023-08-12T13:22:39.004Z,101366.53
2023-08-12T13:24:40.570Z,101368.63
2023-08-12T13:26:42.737Z,101373.69
2023-08-12T13:28:45.018Z,101372.00
2023-08-12T13:30:46.839Z,101369.25
2023-08-12T13:32:48.580Z,101376.44
2023-08-12T13:34:50.208Z,101374.72
2023-08-12T13:36:51.811Z,101370.13
2023-08-12T13:38:53.378Z,101364.66
2023-08-12T13:40:55.108Z,101372.00
2023-08-12T13:42:56.933Z,101369.25
2023-08-12T13:44:59.784Z,101367.41
2023-08-12T13:47:02.601Z,101364.66
2023-08-12T13:49:04.455Z,101368.44
2023-08-12T13:51:07.342Z,101359.38
2023-08-12T13:53:08.905Z,101364.66
2023-08-12T13:55:10.543Z,101361.25
2023-08-12T13:57:12.898Z,101372.00
2023-08-12T13:59:14.528Z,101362.75
2023-08-12T14:01:16.373Z,101363.59
2023-08-12T14:03:18.083Z,101370.78
2023-08-12T14:05:19.861Z,101368.88
2023-08-12T14:07:21.586Z,101363.59
2023-08-12T14:09:23.223Z,101361.53
2023-08-12T14:11:24.916Z,101367.00
2023-08-12T14:13:26.788Z,101365.09
2023-08-12T14:15:28.517Z,101362.38
2023-08-12T14:17:30.100Z,101357.72
2023-08-12T14:19:31.847Z,101365.09
2023-08-12T14:21:33.530Z,101358.59
2023-08-12T14:23:35.106Z,101353.13
2023-08-12T14:25:36.801Z,101360.47
2023-08-12T14:27:38.666Z,101359.63
2023-08-12T14:29:40.256Z,101359.63
2023-08-12T14:31:41.871Z,101370.38
2023-08-12T14:33:44.409Z,101351.81
2023-08-12T14:35:46.079Z,101348.47
2023-08-12T14:37:47.658Z,101353.13
2023-08-12T14:39:49.337Z,101354.78
2023-08-12T14:41:50.938Z,101352.91
2023-08-12T14:43:52.842Z,101352.91
2023-08-12T14:45:54.443Z,101350.38
2023-08-12T14:47:56.108Z,101353.94
2023-08-12T14:49:57.833Z,101358.59
2023-08-12T14:51:59.412Z,101350.38
2023-08-12T14:54:00.996Z,101364.91
2023-08-12T14:56:02.767Z,101362.16
2023-08-12T14:58:04.679Z,101355.66
2023-08-12T15:00:08.155Z,101356.50
2023-08-12T15:02:09.852Z,101370.19
2023-08-12T15:04:11.449Z,101361.13
2023-08-12T15:06:14.876Z,101370.38
2023-08-12T15:08:16.416Z,101354.78
2023-08-12T15:10:18.162Z,101351.22
2023-08-12T15:12:19.815Z,101354.78
2023-08-12T15:14:21.430Z,101355.66
2023-08-12T15:16:23.164Z,101339.44
2023-08-12T15:18:25.450Z,101353.75
2023-08-12T15:20:27.017Z,101365.75
2023-08-12T15:22:29.065Z,101367.63
2023-08-12T15:24:31.331Z,101363.19
2023-08-12T15:26:33.165Z,101364.06
2023-08-12T15:28:34.810Z,101351.41
2023-08-12T15:30:37.383Z,101360.47
2023-08-12T15:32:42.715Z,101362.38
2023-08-12T15:34:44.800Z,101360.03
2023-08-12T15:36:46.561Z,101361.53
2023-08-12T15:38:48.826Z,101365.94
2023-08-12T15:40:50.485Z,101363.19
2023-08-12T15:42:52.120Z,101371.59
2023-08-12T15:44:53.716Z,101364.25
2023-08-12T15:46:55.490Z,101362.38
2023-08-12T15:48:57.084Z,101357.09
2023-08-12T15:50:58.775Z,101361.53
2023-08-12T15:53:00.353Z,101357.91
2023-08-12T15:55:03.103Z,101358.78
2023-08-12T15:57:05.489Z,101367.00
2023-08-12T15:59:07.771Z,101364.25
2023-08-12T16:01:09.360Z,101367.84
2023-08-12T16:03:11.556Z,101359.63
2023-08-12T16:05:13.128Z,101349.50
2023-08-12T16:07:16.195Z,101355.84
2023-08-12T16:09:19.625Z,101368.47
2023-08-12T16:11:21.395Z,101378.38
2023-08-12T16:13:23.089Z,101380.28
2023-08-12T16:15:24.685Z,101373.09
2023-08-12T16:17:26.756Z,101375.00
2023-08-12T16:19:30.232Z,101375.00
2023-08-12T16:21:33.032Z,101365.94
2023-08-12T16:23:34.668Z,101365.94
2023-08-12T16:25:36.251Z,101365.09
2023-08-12T16:27:37.958Z,101363.41
2023-08-12T16:29:39.553Z,101363.41
2023-08-12T16:31:41.243Z,101367.19
2023-08-12T16:33:42.944Z,101368.88
2023-08-12T16:35:44.685Z,101358.31
2023-08-12T16:37:46.428Z,101368.03
2023-08-12T16:39:48.087Z,101363.41
2023-08-12T16:41:49.700Z,101366.13
2023-08-12T16:43:51.265Z,101362.38
2023-08-12T16:45:52.815Z,101365.09
2023-08-12T16:47:54.459Z,101356.88
2023-08-12T16:49:56.224Z,101364.25
2023-08-12T16:51:57.876Z,101365.09
2023-08-12T16:53:59.508Z,101370.56
2023-08-12T16:56:01.105Z,101371.59
2023-08-12T16:58:02.890Z,101367.19
2023-08-12T17:00:06.233Z,101361.72
2023-08-12T17:02:07.983Z,101361.91
2023-08-12T17:04:12.725Z,101371.81
2023-08-12T17:06:14.432Z,101368.22
2023-08-12T17:08:16.026Z,101363.78
2023-08-12T17:10:17.748Z,101364.84
2023-08-12T17:12:19.389Z,101367.13
2023-08-12T17:14:21.019Z,101368.44
2023-08-12T17:16:22.817Z,101373.91
2023-08-12T17:18:24.490Z,101373.91
2023-08-12T17:20:26.831Z,101379.38
2023-08-12T17:22:28.512Z,101371.16
2023-08-12T17:24:30.134Z,101372.19
2023-08-12T17:26:31.775Z,101379.38
2023-08-12T17:28:33.363Z,101366.91
2023-08-12T17:30:36.914Z,101376.00
2023-08-12T17:32:38.618Z,101376.84
2023-08-12T17:34:40.302Z,101383.13
2023-08-12T17:36:41.925Z,101378.06
2023-08-12T17:38:44.097Z,101378.94
2023-08-12T17:40:45.770Z,101381.66
2023-08-12T17:42:47.621Z,101370.91
2023-08-12T17:44:49.216Z,101379.97
2023-08-12T17:46:50.920Z,101378.06
2023-08-12T17:48:52.546Z,101383.53
2023-08-12T17:50:54.138Z,101374.50
2023-08-12T17:52:55.941Z,101376.19
2023-08-12T17:54:57.798Z,101378.06
2023-08-12T17:56:59.476Z,101382.69
2023-08-12T17:59:01.482Z,101382.69
2023-08-12T18:01:03.171Z,101387.34
2023-08-12T18:03:05.073Z,101386.47
2023-08-12T18:05:07.638Z,101381.00
2023-08-12T18:07:09.218Z,101384.78
2023-08-12T18:09:10.864Z,101382.25
2023-08-12T18:11:12.439Z,101389.41
2023-08-12T18:13:14.033Z,101381.19
2023-08-12T18:15:15.920Z,101383.94
2023-08-12T18:17:17.577Z,101386.66
2023-08-12T18:19:19.117Z,101384.13
2023-08-12T18:21:20.736Z,101378.66
2023-08-12T18:23:22.376Z,101395.06
2023-08-12T18:25:25.314Z,101390.66
2023-08-12T18:27:27.083Z,101396.13
2023-08-12T18:29:28.685Z,101391.88
2023-08-12T18:31:30.271Z,101394.22
2023-08-12T18:33:31.982Z,101396.13
2023-08-12T18:35:35.000Z,101392.53
2023-08-12T18:37:36.825Z,101393.59
2023-08-12T18:39:38.467Z,101391.88
2023-08-12T18:41:40.392Z,101395.47
2023-08-12T18:43:42.070Z,101390.84
2023-08-12T18:45:43.788Z,101393.59
2023-08-12T18:47:45.495Z,101395.47
2023-08-12T18:49:47.198Z,101399.06
2023-08-12T18:51:48.805Z,101405.38
2023-08-12T18:53:50.616Z,101405.38
2023-08-12T18:55:52.573Z,101401.13
2023-08-12T18:57:54.240Z,101403.66
2023-08-12T18:59:55.908Z,101403.66
2023-08-12T19:01:58.412Z,101403.66
2023-08-12T19:04:00.042Z,101399.25
2023-08-12T19:06:01.728Z,101408.31
2023-08-12T19:08:03.770Z,101404.72
2023-08-12T19:10:06.504Z,101405.75
2023-08-12T19:12:10.574Z,101410.19
2023-08-12T19:14:13.789Z,101405.09
2023-08-12T19:16:15.472Z,101403.22
2023-08-12T19:18:17.477Z,101411.44
2023-08-12T19:20:19.146Z,101411.44
2023-08-12T19:22:20.907Z,101411.44
2023-08-12T19:24:22.707Z,101404.25
2023-08-12T19:26:24.437Z,101404.25
2023-08-12T19:28:26.248Z,101407.19
2023-08-12T19:30:27.875Z,101411.81
2023-08-12T19:32:29.569Z,101421.69
2023-08-12T19:34:33.327Z,101424.44
2023-08-12T19:36:35.952Z,101426.34
2023-08-12T19:38:37.700Z,101440.84
2023-08-12T19:40:39.678Z,101437.28
2023-08-12T19:42:41.460Z,101441.03
2023-08-12T19:44:43.163Z,101441.03
2023-08-12T19:46:45.027Z,101442.09
2023-08-12T19:48:46.657Z,101442.09
2023-08-12T19:50:50.773Z,101445.88
2023-08-12T19:52:52.516Z,101443.78
2023-08-12T19:54:54.213Z,101458.50
2023-08-12T19:56:56.030Z,101460.38
2023-08-12T19:58:57.741Z,101456.81
2023-08-12T20:00:59.389Z,101466.03
2023-08-12T20:03:01.015Z,101471.31
2023-08-12T20:05:02.818Z,101463.31
2023-08-12T20:07:04.548Z,101464.19
2023-08-12T20:09:07.469Z,101459.72
2023-08-12T20:11:10.534Z,101470.03
2023-08-12T20:13:12.124Z,101473.41
2023-08-12T20:15:14.086Z,101470.88
2023-08-12T20:17:15.758Z,101486.25
2023-08-12T20:19:17.368Z,101486.25
2023-08-12T20:21:19.099Z,101480.78
2023-08-12T20:23:21.810Z,101476.34
2023-08-12T20:25:23.454Z,101487.28
2023-08-12T20:27:25.122Z,101480.97
2023-08-12T20:29:26.661Z,101491.03
2023-08-12T20:31:28.322Z,101490.22
2023-08-12T20:33:30.065Z,101483.91
2023-08-12T20:35:32.214Z,101492.94
2023-08-12T20:37:34.996Z,101483.03
2023-08-12T20:39:37.066Z,101480.50
2023-08-12T20:41:38.825Z,101484.94
2023-08-12T20:43:40.479Z,101479.47
2023-08-12T20:45:42.050Z,101474.19
2023-08-12T20:47:43.914Z,101470.41
2023-08-12T20:49:45.904Z,101480.50
2023-08-12T20:51:47.475Z,101477.94
2023-08-12T20:53:49.119Z,101480.69
2023-08-12T20:55:51.699Z,101479.84
2023-08-12T20:57:53.328Z,101483.41
2023-08-12T20:59:54.877Z,101492.69
2023-08-12T21:01:56.583Z,101494.75
2023-08-12T21:03:58.456Z,101490.97
2023-08-12T21:06:00.094Z,101491.81
2023-08-12T21:08:01.772Z,101491.81
2023-08-12T21:10:03.683Z,101481.25
2023-08-12T21:12:06.909Z,101481.94
2023-08-12T21:14:08.524Z,101480.22
2023-08-12T21:16:10.255Z,101483.81
2023-08-12T21:18:12.267Z,101478.53
2023-08-12T21:20:13.972Z,101476.66
2023-08-12T21:22:15.734Z,101480.22
2023-08-12T21:24:17.690Z,101483.16
2023-08-12T21:26:19.282Z,101474.13
2023-08-12T21:28:20.892Z,101477.03
2023-08-12T21:30:22.746Z,101472.41
2023-08-12T21:32:24.460Z,101476.19
2023-08-12T21:34:26.000Z,101476.19
2023-08-12T21:36:27.831Z,101476.19
2023-08-12T21:38:29.485Z,101472.59
2023-08-12T21:40:31.181Z,101477.19
2023-08-12T21:42:32.819Z,101490.88
2023-08-12T21:44:34.657Z,101485.59
2023-08-12T21:46:36.440Z,101489.00
2023-08-12T21:48:38.169Z,101491.94
2023-08-12T21:50:39.714Z,101479.28
2023-08-12T21:52:41.349Z,101482.03
2023-08-12T21:54:44.211Z,101485.78
2023-08-12T21:56:45.781Z,101483.06
2023-08-12T21:58:47.949Z,101475.25
2023-08-12T22:00:49.609Z,101481.56
2023-08-12T22:02:51.398Z,101483.25
2023-08-12T22:04:53.314Z,101476.28
2023-08-12T22:06:54.959Z,101480.72
2023-08-12T22:08:56.873Z,101479.88
2023-08-12T22:10:58.606Z,101472.50
2023-08-12T22:13:00.247Z,101477.13
2023-08-12T22:15:01.878Z,101472.69
2023-08-12T22:17:04.218Z,101483.63
2023-08-12T22:19:05.951Z,101479.03
2023-08-12T22:21:07.524Z,101472.88
2023-08-12T22:23:09.068Z,101472.88
2023-08-12T22:25:10.761Z,101468.00
2023-08-12T22:27:12.412Z,101480.25
2023-08-12T22:29:15.337Z,101475.81
2023-08-12T22:31:17.135Z,101474.97
2023-08-12T22:33:18.950Z,101478.53
2023-08-12T22:35:20.844Z,101477.72
2023-08-12T22:37:22.544Z,101474.13
2023-08-12T22:39:24.523Z,101471.41
2023-08-12T22:41:26.140Z,101468.84
2023-08-12T22:43:27.818Z,101464.22
2023-08-12T22:45:29.552Z,101466.13
2023-08-12T22:47:31.140Z,101469.06
2023-08-12T22:49:32.850Z,101467.16
2023-08-12T22:51:34.400Z,101461.50
2023-08-12T22:53:36.227Z,101455.38
2023-08-12T22:55:37.927Z,101466.31
2023-08-12T22:57:39.562Z,101457.44
2023-08-12T22:59:41.251Z,101468.19
2023-08-12T23:01:42.876Z,101466.50
2023-08-12T23:03:44.683Z,101467.34
2023-08-12T23:05:47.058Z,101467.34
2023-08-12T23:07:48.702Z,101471.09
2023-08-12T23:09:50.353Z,101470.28
2023-08-12T23:11:52.050Z,101476.56
2023-08-12T23:13:53.704Z,101472.16
2023-08-12T23:15:55.403Z,101475.94